createdAt,value
2018-09-25T00:00:17.454Z,0.00
2018-09-25T00:01:17.432Z,0.00
2018-09-25T00:02:17.406Z,0.00
2018-09-25T00:03:17.385Z,0.00
2018-09-25T00:04:17.368Z,0.00
2018-09-25T00:05:17.343Z,0.00
2018-09-25T00:06:17.321Z,0.00
2018-09-25T00:07:17.297Z,0.00
2018-09-25T00:08:17.280Z,0.00
2018-09-25T00:09:17.255Z,0.00
2018-09-25T00:10:17.292Z,0.00
2018-09-25T00:11:17.229Z,0.00
2018-09-25T00:12:17.192Z,0.00
2018-09-25T00:13:17.172Z,0.00
2018-09-25T00:14:17.154Z,0.00
2018-09-25T00:15:17.128Z,0.00
2018-09-25T00:16:17.428Z,0.00
2018-09-25T00:17:17.086Z,0.00
2018-09-25T00:18:17.060Z,0.00
2018-09-25T00:19:17.038Z,0.00
2018-09-25T00:20:17.025Z,0.00
2018-09-25T00:21:16.998Z,0.00
2018-09-25T00:22:16.977Z,0.00
2018-09-25T00:23:16.954Z,0.00
2018-09-25T00:24:16.932Z,0.00
2018-09-25T00:25:16.913Z,0.00
2018-09-25T00:26:16.891Z,0.00
2018-09-25T00:27:16.874Z,0.00
2018-09-25T00:28:16.848Z,0.00
2018-09-25T00:29:16.826Z,0.00
2018-09-25T00:30:17.126Z,0.00
2018-09-25T00:31:16.781Z,0.00
2018-09-25T00:32:16.760Z,0.00
2018-09-25T00:33:16.734Z,0.00
2018-09-25T00:34:16.716Z,0.00
2018-09-25T00:35:16.694Z,0.00
2018-09-25T00:36:16.674Z,0.00
2018-09-25T00:37:16.650Z,0.00
2018-09-25T00:38:16.626Z,0.00
2018-09-25T00:39:16.608Z,0.00
2018-09-25T00:40:16.586Z,0.00
2018-09-25T00:41:16.629Z,0.00
2018-09-25T00:42:16.545Z,0.00
2018-09-25T00:43:16.518Z,0.00
2018-09-25T00:44:16.496Z,0.00
2018-09-25T00:45:16.480Z,0.00
2018-09-25T00:46:16.459Z,0.00
2018-09-25T00:47:16.438Z,0.00
2018-09-25T00:48:16.416Z,0.00
2018-09-25T00:49:16.391Z,0.00
2018-09-25T00:50:16.370Z,0.00
2018-09-25T00:51:16.344Z,0.00
2018-09-25T00:52:16.336Z,0.00
2018-09-25T00:53:16.306Z,0.00
2018-09-25T00:54:16.280Z,0.00
2018-09-25T00:55:16.262Z,0.00
2018-09-25T00:56:16.240Z,0.00
2018-09-25T00:57:16.215Z,0.00
2018-09-25T00:58:16.196Z,0.00
2018-09-25T00:59:16.174Z,0.00
2018-09-25T01:00:16.150Z,0.00
2018-09-25T01:01:16.127Z,0.00
2018-09-25T01:02:16.109Z,0.00
2018-09-25T01:03:16.088Z,0.00
2018-09-25T01:04:16.066Z,0.00
2018-09-25T01:05:16.045Z,0.00
2018-09-25T01:06:16.021Z,0.00
2018-09-25T01:07:15.995Z,0.00
2018-09-25T01:08:15.985Z,0.00
2018-09-25T01:09:15.953Z,0.00
2018-09-25T01:10:15.937Z,0.00
2018-09-25T01:11:15.915Z,0.00
2018-09-25T01:12:15.893Z,0.00
2018-09-25T01:13:15.869Z,0.00
2018-09-25T01:14:15.844Z,0.00
2018-09-25T01:15:15.827Z,0.00
2018-09-25T01:16:15.809Z,0.00
2018-09-25T01:17:15.783Z,0.00
2018-09-25T01:18:15.757Z,0.00
2018-09-25T01:19:15.802Z,0.00
2018-09-25T01:20:15.716Z,0.00
2018-09-25T01:21:15.691Z,0.00
2018-09-25T01:22:15.673Z,0.00
2018-09-25T01:23:15.651Z,0.00
2018-09-25T01:24:15.629Z,0.00
2018-09-25T01:25:15.610Z,0.00
2018-09-25T01:26:15.586Z,0.00
2018-09-25T01:27:15.561Z,0.00
2018-09-25T01:28:15.541Z,0.00
2018-09-25T01:29:15.515Z,0.00
2018-09-25T01:30:15.499Z,0.00
2018-09-25T01:31:15.483Z,0.00
2018-09-25T01:32:15.458Z,0.00
2018-09-25T01:33:15.435Z,0.00
2018-09-25T01:34:15.409Z,0.00
2018-09-25T01:35:15.389Z,0.00
2018-09-25T01:36:15.365Z,0.00
2018-09-25T01:37:15.342Z,0.00
2018-09-25T01:38:15.323Z,0.00
2018-09-25T01:39:15.297Z,0.00
2018-09-25T01:40:15.281Z,0.00
2018-09-25T01:41:15.257Z,0.00
2018-09-25T01:42:15.237Z,0.00
2018-09-25T01:43:15.223Z,0.00
2018-09-25T01:44:15.193Z,0.00
2018-09-25T01:45:15.169Z,0.00
2018-09-25T01:46:15.147Z,0.00
2018-09-25T01:47:15.124Z,0.00
2018-09-25T01:48:15.107Z,0.00
2018-09-25T01:49:15.086Z,0.00
2018-09-25T01:50:15.061Z,0.00
2018-09-25T01:51:15.039Z,0.00
2018-09-25T01:52:15.017Z,0.00
2018-09-25T01:53:14.994Z,0.00
2018-09-25T01:54:14.977Z,0.00
2018-09-25T01:55:14.955Z,0.00
2018-09-25T01:56:14.933Z,0.00
2018-09-25T01:57:14.913Z,0.00
2018-09-25T01:58:14.885Z,0.00
2018-09-25T01:59:14.865Z,0.00
2018-09-25T02:00:14.839Z,0.00
2018-09-25T02:01:14.827Z,0.00
2018-09-25T02:02:14.799Z,0.00
2018-09-25T02:03:14.775Z,0.00
2018-09-25T02:04:14.755Z,0.00
2018-09-25T02:05:14.731Z,0.00
2018-09-25T02:06:14.713Z,0.00
2018-09-25T02:07:14.685Z,0.00
2018-09-25T02:08:14.669Z,0.00
2018-09-25T02:09:14.643Z,0.00
2018-09-25T02:10:14.622Z,0.00
2018-09-25T02:11:14.600Z,0.00
2018-09-25T02:12:14.580Z,0.00
2018-09-25T02:13:14.559Z,0.00
2018-09-25T02:14:14.533Z,0.00
2018-09-25T02:15:14.517Z,0.00
2018-09-25T02:16:14.492Z,0.00
2018-09-25T02:17:14.473Z,0.00
2018-09-25T02:18:14.445Z,0.00
2018-09-25T02:19:14.425Z,0.00
2018-09-25T02:20:14.405Z,0.00
2018-09-25T02:21:14.379Z,0.00
2018-09-25T02:22:14.360Z,0.00
2018-09-25T02:23:14.339Z,0.00
2018-09-25T02:24:14.317Z,0.00
2018-09-25T02:25:14.295Z,0.00
2018-09-25T02:26:14.273Z,0.00
2018-09-25T02:27:14.251Z,0.00
2018-09-25T02:28:14.229Z,0.00
2018-09-25T02:29:14.205Z,0.00
2018-09-25T02:30:14.182Z,0.00
2018-09-25T02:31:14.159Z,0.00
2018-09-25T02:32:14.140Z,0.00
2018-09-25T02:33:14.114Z,0.00
2018-09-25T02:34:14.102Z,0.00
2018-09-25T02:35:14.079Z,0.00
2018-09-25T02:36:14.052Z,0.00
2018-09-25T02:37:14.036Z,0.00
2018-09-25T02:38:14.005Z,0.00
2018-09-25T02:39:13.988Z,0.00
2018-09-25T02:40:13.966Z,0.00
2018-09-25T02:41:13.940Z,0.00
2018-09-25T02:42:13.922Z,0.00
2018-09-25T02:43:13.895Z,0.00
2018-09-25T02:44:13.877Z,0.00
2018-09-25T02:45:13.854Z,0.00
2018-09-25T02:46:13.833Z,0.00
2018-09-25T02:47:13.814Z,0.00
2018-09-25T02:48:13.791Z,0.00
2018-09-25T02:49:13.761Z,0.00
2018-09-25T02:50:13.749Z,0.00
2018-09-25T02:51:13.726Z,0.00
2018-09-25T02:52:13.703Z,0.00
2018-09-25T02:53:13.679Z,0.00
2018-09-25T02:54:13.664Z,0.00
2018-09-25T02:55:13.634Z,0.00
2018-09-25T02:56:13.615Z,0.00
2018-09-25T02:57:13.589Z,0.00
2018-09-25T02:58:13.567Z,0.00
2018-09-25T02:59:13.547Z,0.00
2018-09-25T03:00:13.526Z,0.00
2018-09-25T03:01:13.497Z,0.00
2018-09-25T03:02:13.482Z,0.00
2018-09-25T03:03:13.462Z,0.00
2018-09-25T03:04:13.440Z,0.00
2018-09-25T03:05:13.411Z,0.00
2018-09-25T03:06:13.394Z,0.00
2018-09-25T03:07:13.369Z,0.00
2018-09-25T03:08:13.345Z,0.00
2018-09-25T03:09:13.326Z,0.00
2018-09-25T03:10:13.312Z,0.00
2018-09-25T03:11:13.291Z,0.00
2018-09-25T03:12:13.258Z,0.00
2018-09-25T03:13:13.238Z,0.00
2018-09-25T03:14:13.223Z,0.00
2018-09-25T03:15:13.206Z,0.00
2018-09-25T03:16:13.177Z,0.00
2018-09-25T03:17:13.151Z,0.00
2018-09-25T03:18:13.134Z,0.00
2018-09-25T03:19:13.189Z,0.00
2018-09-25T03:20:13.083Z,0.00
2018-09-25T03:21:13.063Z,0.00
2018-09-25T03:22:13.040Z,0.00
2018-09-25T03:23:13.027Z,0.00
2018-09-25T03:24:12.998Z,0.00
2018-09-25T03:25:12.972Z,0.00
2018-09-25T03:26:12.951Z,0.00
2018-09-25T03:27:12.934Z,0.00
2018-09-25T03:28:12.906Z,0.00
2018-09-25T03:29:12.885Z,0.00
2018-09-25T03:30:12.861Z,0.00
2018-09-25T03:31:12.842Z,0.00
2018-09-25T03:32:12.823Z,0.00
2018-09-25T03:33:12.794Z,0.00
2018-09-25T03:34:12.774Z,0.00
2018-09-25T03:35:12.750Z,0.00
2018-09-25T03:36:12.735Z,0.00
2018-09-25T03:37:12.706Z,0.00
2018-09-25T03:38:12.687Z,0.00
2018-09-25T03:39:12.665Z,0.00
2018-09-25T03:40:12.640Z,0.00
2018-09-25T03:41:12.625Z,0.00
2018-09-25T03:42:12.602Z,0.00
2018-09-25T03:43:12.577Z,0.00
2018-09-25T03:44:12.551Z,0.00
2018-09-25T03:45:12.534Z,0.00
2018-09-25T03:46:12.510Z,0.00
2018-09-25T03:47:12.494Z,0.00
2018-09-25T03:48:12.466Z,0.00
2018-09-25T03:49:12.457Z,0.00
2018-09-25T03:50:12.418Z,0.00
2018-09-25T03:51:12.400Z,0.00
2018-09-25T03:52:12.379Z,0.00
2018-09-25T03:53:12.353Z,0.00
2018-09-25T03:54:12.331Z,0.00
2018-09-25T03:55:12.315Z,0.00
2018-09-25T03:56:12.291Z,0.00
2018-09-25T03:57:12.272Z,0.00
2018-09-25T03:58:12.247Z,0.00
2018-09-25T03:59:12.223Z,0.00
2018-09-25T04:00:12.199Z,0.00
2018-09-25T04:01:12.180Z,0.00
2018-09-25T04:02:12.153Z,0.00
2018-09-25T04:03:12.140Z,0.00
2018-09-25T04:04:12.113Z,0.00
2018-09-25T04:05:12.089Z,0.00
2018-09-25T04:06:12.105Z,0.00
2018-09-25T04:07:12.047Z,0.00
2018-09-25T04:08:12.029Z,0.00
2018-09-25T04:09:12.001Z,0.00
2018-09-25T04:10:11.979Z,0.00
2018-09-25T04:11:11.961Z,0.00
2018-09-25T04:12:11.937Z,0.00
2018-09-25T04:13:11.909Z,0.00
2018-09-25T04:14:11.891Z,0.00
2018-09-25T04:15:11.869Z,0.00
2018-09-25T04:16:11.847Z,0.00
2018-09-25T04:17:11.825Z,0.00
2018-09-25T04:18:11.807Z,0.00
2018-09-25T04:19:11.786Z,0.00
2018-09-25T04:20:11.759Z,0.00
2018-09-25T04:21:11.739Z,0.00
2018-09-25T04:22:11.717Z,0.00
2018-09-25T04:23:11.688Z,0.00
2018-09-25T04:24:11.673Z,0.00
2018-09-25T04:25:11.647Z,0.00
2018-09-25T04:26:11.622Z,0.00
2018-09-25T04:27:11.604Z,4.00
2018-09-25T04:28:11.584Z,4.00
2018-09-25T04:29:11.557Z,0.00
2018-09-25T04:30:11.539Z,0.00
2018-09-25T04:31:11.517Z,4.00
2018-09-25T04:32:11.495Z,4.00
2018-09-25T04:33:11.473Z,4.00
2018-09-25T04:34:11.450Z,4.00
2018-09-25T04:35:11.427Z,8.00
2018-09-25T04:36:11.407Z,8.00
2018-09-25T04:37:11.435Z,8.00
2018-09-25T04:38:11.359Z,12.00
2018-09-25T04:39:11.337Z,16.00
2018-09-25T04:40:11.317Z,16.00
2018-09-25T04:41:11.295Z,20.00
2018-09-25T04:42:11.269Z,20.00
2018-09-25T04:43:11.251Z,24.00
2018-09-25T04:44:11.237Z,28.00
2018-09-25T04:45:11.204Z,32.00
2018-09-25T04:46:11.183Z,40.00
2018-09-25T04:47:11.159Z,44.00
2018-09-25T04:48:11.142Z,48.00
2018-09-25T04:49:11.116Z,52.00
2018-09-25T04:50:11.097Z,60.00
2018-09-25T04:51:11.077Z,72.00
2018-09-25T04:52:11.052Z,76.00
2018-09-25T04:53:11.026Z,84.00
2018-09-25T04:54:11.005Z,96.00
2018-09-25T04:55:10.983Z,104.00
2018-09-25T04:56:10.975Z,116.00
2018-09-25T04:57:11.094Z,128.00
2018-09-25T04:58:10.912Z,140.00
2018-09-25T04:59:10.891Z,152.00
2018-09-25T05:00:10.876Z,168.00
2018-09-25T05:01:10.855Z,180.00
2018-09-25T05:02:10.825Z,192.00
2018-09-25T05:03:10.807Z,208.00
2018-09-25T05:04:10.783Z,224.00
2018-09-25T05:05:10.762Z,236.00
2018-09-25T05:06:10.740Z,252.00
2018-09-25T05:07:10.723Z,268.00
2018-09-25T05:08:10.698Z,284.00
2018-09-25T05:09:10.673Z,304.00
2018-09-25T05:10:10.650Z,316.00
2018-09-25T05:11:10.633Z,336.00
2018-09-25T05:12:10.663Z,352.00
2018-09-25T05:13:10.588Z,372.00
2018-09-25T05:14:10.561Z,384.00
2018-09-25T05:15:10.542Z,400.00
2018-09-25T05:16:10.519Z,420.00
2018-09-25T05:17:10.491Z,436.00
2018-09-25T05:18:10.479Z,444.00
2018-09-25T05:19:10.448Z,464.00
2018-09-25T05:20:10.433Z,472.00
2018-09-25T05:21:10.408Z,484.00
2018-09-25T05:22:10.383Z,500.00
2018-09-25T05:23:10.363Z,520.00
2018-09-25T05:24:10.339Z,536.00
2018-09-25T05:25:10.316Z,556.00
2018-09-25T05:26:10.291Z,572.00
2018-09-25T05:27:10.272Z,592.00
2018-09-25T05:28:10.246Z,608.00
2018-09-25T05:29:10.232Z,628.00
2018-09-25T05:30:10.207Z,648.00
2018-09-25T05:31:10.180Z,668.00
2018-09-25T05:32:10.160Z,692.00
2018-09-25T05:33:10.140Z,708.00
2018-09-25T05:34:10.115Z,724.00
2018-09-25T05:35:10.096Z,740.00
2018-09-25T05:36:10.072Z,756.00
2018-09-25T05:37:10.050Z,772.00
2018-09-25T05:38:10.028Z,788.00
2018-09-25T05:39:10.004Z,804.00
2018-09-25T05:40:09.984Z,820.00
2018-09-25T05:41:09.959Z,836.00
2018-09-25T05:42:09.944Z,852.00
2018-09-25T05:43:09.916Z,868.00
2018-09-25T05:44:09.894Z,880.00
2018-09-25T05:45:09.875Z,900.00
2018-09-25T05:46:09.850Z,912.00
2018-09-25T05:47:09.829Z,928.00
2018-09-25T05:48:09.818Z,944.00
2018-09-25T05:49:09.781Z,956.00
2018-09-25T05:50:09.765Z,968.00
2018-09-25T05:51:09.739Z,988.00
2018-09-25T05:52:09.718Z,1004.00
2018-09-25T05:53:09.696Z,1016.00
2018-09-25T05:54:09.672Z,1032.00
2018-09-25T05:55:09.651Z,1048.00
2018-09-25T05:56:09.626Z,1064.00
2018-09-25T05:57:09.606Z,1080.00
2018-09-25T05:58:09.589Z,1100.00
2018-09-25T05:59:09.563Z,1116.00
2018-09-25T06:00:09.543Z,1132.00
2018-09-25T06:01:09.623Z,1140.00
2018-09-25T06:02:09.496Z,1164.00
2018-09-25T06:03:09.478Z,1184.00
2018-09-25T06:04:09.453Z,1200.00
2018-09-25T06:05:09.423Z,1220.00
2018-09-25T06:06:09.406Z,1236.00
2018-09-25T06:07:09.383Z,1256.00
2018-09-25T06:08:09.365Z,1272.00
2018-09-25T06:09:09.393Z,1288.00
2018-09-25T06:10:09.318Z,1308.00
2018-09-25T06:11:09.298Z,1320.00
2018-09-25T06:12:09.281Z,1344.00
2018-09-25T06:13:09.252Z,1368.00
2018-09-25T06:14:09.228Z,1396.00
2018-09-25T06:15:09.207Z,1404.00
2018-09-25T06:16:09.190Z,1428.00
2018-09-25T06:17:09.166Z,1444.00
2018-09-25T06:18:09.141Z,1468.00
2018-09-25T06:19:09.127Z,1480.00
2018-09-25T06:20:09.105Z,1504.00
2018-09-25T06:21:09.074Z,1528.00
2018-09-25T06:22:09.053Z,1548.00
2018-09-25T06:23:09.157Z,1564.00
2018-09-25T06:24:09.013Z,1588.00
2018-09-25T06:25:08.987Z,1604.00
2018-09-25T06:26:08.963Z,1632.00
2018-09-25T06:27:08.943Z,1656.00
2018-09-25T06:28:08.921Z,1680.00
2018-09-25T06:29:08.900Z,1700.00
2018-09-25T06:30:08.878Z,1724.00
2018-09-25T06:31:08.858Z,1764.00
2018-09-25T06:32:08.832Z,1788.00
2018-09-25T06:33:08.809Z,1812.00
2018-09-25T06:34:08.785Z,1844.00
2018-09-25T06:35:08.767Z,1880.00
2018-09-25T06:36:08.749Z,1908.00
2018-09-25T06:37:08.748Z,1940.00
2018-09-25T06:38:08.706Z,1972.00
2018-09-25T06:39:08.683Z,2004.00
2018-09-25T06:40:08.657Z,2036.00
2018-09-25T06:41:08.633Z,2068.00
2018-09-25T06:42:08.615Z,2100.00
2018-09-25T06:43:08.590Z,2128.00
2018-09-25T06:44:08.577Z,2164.00
2018-09-25T06:45:08.556Z,2204.00
2018-09-25T06:46:08.530Z,2228.00
2018-09-25T06:47:08.569Z,2252.00
2018-09-25T06:48:08.488Z,2292.00
2018-09-25T06:49:08.462Z,2324.00
2018-09-25T06:50:08.439Z,2360.00
2018-09-25T06:51:08.417Z,2400.00
2018-09-25T06:52:08.399Z,2432.00
2018-09-25T06:53:08.379Z,2472.00
2018-09-25T06:54:08.357Z,2524.00
2018-09-25T06:55:08.388Z,2580.00
2018-09-25T06:56:08.314Z,2636.00
2018-09-25T06:57:08.289Z,2704.00
2018-09-25T06:58:08.272Z,2776.00
2018-09-25T06:59:08.246Z,2824.00
2018-09-25T07:00:08.239Z,2880.00
2018-09-25T07:01:08.201Z,2932.00
2018-09-25T07:02:08.181Z,2976.00
2018-09-25T07:03:08.161Z,3008.00
2018-09-25T07:04:08.142Z,3044.00
2018-09-25T07:05:08.126Z,3092.00
2018-09-25T07:06:08.098Z,3144.00
2018-09-25T07:07:08.081Z,3220.00
2018-09-25T07:08:08.054Z,3328.00
2018-09-25T07:09:08.040Z,3428.00
2018-09-25T07:10:08.195Z,3636.00
2018-09-25T07:11:07.993Z,3892.00
2018-09-25T07:12:07.982Z,4156.00
2018-09-25T07:13:07.948Z,4408.00
2018-09-25T07:14:07.937Z,4624.00
2018-09-25T07:15:07.915Z,4820.00
2018-09-25T07:16:07.898Z,5068.00
2018-09-25T07:17:07.875Z,5348.00
2018-09-25T07:18:07.949Z,5584.00
2018-09-25T07:19:07.830Z,5796.00
2018-09-25T07:20:07.806Z,6076.00
2018-09-25T07:21:07.784Z,6712.00
2018-09-25T07:22:07.768Z,8224.00
2018-09-25T07:23:07.750Z,9480.00
2018-09-25T07:24:07.723Z,11828.00
2018-09-25T07:25:07.790Z,13588.00
2018-09-25T07:26:07.684Z,14720.00
2018-09-25T07:27:07.665Z,18208.00
2018-09-25T07:28:07.644Z,19680.00
2018-09-25T07:29:07.626Z,21792.00
2018-09-25T07:30:07.606Z,20032.00
2018-09-25T07:31:07.723Z,10396.00
2018-09-25T07:32:07.573Z,6620.00
2018-09-25T07:33:07.542Z,6600.00
2018-09-25T07:34:07.530Z,6652.00
2018-09-25T07:35:07.512Z,6680.00
2018-09-25T07:36:07.490Z,6688.00
2018-09-25T07:37:07.469Z,6780.00
2018-09-25T07:38:07.446Z,7252.00
2018-09-25T07:39:07.430Z,20032.00
2018-09-25T07:40:07.410Z,33312.00
2018-09-25T07:41:07.395Z,33344.00
2018-09-25T07:42:07.372Z,36032.00
2018-09-25T07:43:07.358Z,34816.00
2018-09-25T07:44:07.340Z,33824.00
2018-09-25T07:45:07.316Z,25536.00
2018-09-25T07:46:07.295Z,20704.00
2018-09-25T07:47:07.283Z,23584.00
2018-09-25T07:48:07.271Z,37376.00
2018-09-25T07:49:07.242Z,43552.00
2018-09-25T07:50:07.230Z,43104.00
2018-09-25T07:51:07.206Z,36704.00
2018-09-25T07:52:07.190Z,31232.00
2018-09-25T07:53:07.169Z,36832.00
2018-09-25T07:54:07.161Z,40320.00
2018-09-25T07:55:07.166Z,40224.00
2018-09-25T07:56:07.122Z,38848.00
2018-09-25T07:57:07.107Z,41152.00
2018-09-25T07:58:07.092Z,42176.00
2018-09-25T07:59:07.074Z,40864.00
2018-09-25T08:00:07.056Z,44960.00
2018-09-25T08:01:07.040Z,45664.00
2018-09-25T08:02:07.026Z,43488.00
2018-09-25T08:03:07.044Z,45856.00
2018-09-25T08:04:06.992Z,46816.00
2018-09-25T08:05:06.976Z,46784.00
2018-09-25T08:06:06.966Z,45024.00
2018-09-25T08:07:06.946Z,38784.00
2018-09-25T08:08:06.931Z,27552.00
2018-09-25T08:09:06.972Z,15680.00
2018-09-25T08:10:06.906Z,13260.00
2018-09-25T08:11:06.892Z,13696.00
2018-09-25T08:12:06.878Z,13548.00
2018-09-25T08:13:06.860Z,13660.00
2018-09-25T08:14:06.848Z,13620.00
2018-09-25T08:15:06.834Z,13652.00
2018-09-25T08:16:06.820Z,13668.00
2018-09-25T08:17:06.804Z,13736.00
2018-09-25T08:18:06.791Z,13576.00
2018-09-25T08:19:06.782Z,13456.00
2018-09-25T08:20:06.765Z,13324.00
2018-09-25T08:21:06.753Z,13216.00
2018-09-25T08:22:06.741Z,13000.00
2018-09-25T08:23:06.725Z,12792.00
2018-09-25T08:24:06.716Z,12560.00
2018-09-25T08:25:06.747Z,12184.00
2018-09-25T08:26:06.682Z,11628.00
2018-09-25T08:27:06.673Z,10608.00
2018-09-25T08:28:06.660Z,9736.00
2018-09-25T08:29:06.644Z,8464.00
2018-09-25T08:30:06.634Z,8076.00
2018-09-25T08:31:06.632Z,7416.00
2018-09-25T08:32:06.609Z,7360.00
2018-09-25T08:33:06.594Z,8344.00
2018-09-25T08:34:06.606Z,8248.00
2018-09-25T08:35:06.641Z,8056.00
2018-09-25T08:36:06.569Z,8100.00
2018-09-25T08:37:06.546Z,7716.00
2018-09-25T08:38:06.534Z,8256.00
2018-09-25T08:39:06.551Z,8164.00
2018-09-25T08:40:06.508Z,8324.00
2018-09-25T08:41:06.496Z,8384.00
2018-09-25T08:42:06.480Z,8252.00
2018-09-25T08:43:06.465Z,7880.00
2018-09-25T08:44:06.451Z,7628.00
2018-09-25T08:45:06.440Z,7192.00
2018-09-25T08:46:06.429Z,7176.00
2018-09-25T08:47:06.418Z,7524.00
2018-09-25T08:48:06.404Z,8036.00
2018-09-25T08:49:06.397Z,9504.00
2018-09-25T08:50:06.374Z,9324.00
2018-09-25T08:51:06.362Z,9576.00
2018-09-25T08:52:06.366Z,9408.00
2018-09-25T08:53:06.337Z,8920.00
2018-09-25T08:54:48.088Z,9660.00
2018-09-25T08:55:06.314Z,9536.00
2018-09-25T08:56:06.295Z,9452.00
2018-09-25T08:57:06.283Z,9188.00
2018-09-25T08:58:06.276Z,9172.00
2018-09-25T08:59:06.256Z,9436.00
2018-09-25T09:00:06.242Z,10176.00
2018-09-25T09:01:09.864Z,10556.00
2018-09-25T09:05:27.107Z,10852.00
2018-09-25T09:06:27.099Z,10948.00
2018-09-25T09:07:27.079Z,10912.00
2018-09-25T09:08:27.142Z,11008.00
2018-09-25T09:09:27.055Z,11000.00
2018-09-25T09:10:27.044Z,11064.00
2018-09-25T09:11:27.133Z,11056.00
2018-09-25T09:12:27.016Z,11120.00
2018-09-25T09:13:27.007Z,11300.00
2018-09-25T09:14:26.991Z,11388.00
2018-09-25T09:15:26.981Z,11348.00
2018-09-25T09:16:26.968Z,11324.00
2018-09-25T09:17:26.955Z,11636.00
2018-09-25T09:18:26.946Z,12180.00
2018-09-25T09:19:26.931Z,11796.00
2018-09-25T09:20:26.917Z,5516.00
2018-09-25T09:21:26.914Z,13300.00
2018-09-25T09:22:26.896Z,14276.00
2018-09-25T09:23:26.883Z,15136.00
2018-09-25T09:24:26.867Z,14912.00
2018-09-25T09:25:26.855Z,13508.00
2018-09-25T09:26:26.842Z,6996.00
2018-09-25T09:27:26.837Z,11508.00
2018-09-25T09:28:26.818Z,12544.00
2018-09-25T09:29:26.813Z,12252.00
2018-09-25T09:30:26.799Z,4856.00
2018-09-25T09:31:26.785Z,11980.00
2018-09-25T09:32:26.769Z,11720.00
2018-09-25T09:33:26.757Z,11608.00
2018-09-25T09:34:26.746Z,11568.00
2018-09-25T09:35:26.734Z,12180.00
2018-09-25T09:36:26.729Z,12068.00
2018-09-25T09:37:26.714Z,11896.00
2018-09-25T09:38:26.700Z,11924.00
2018-09-25T09:40:26.679Z,13220.00
2018-09-25T09:41:26.754Z,14188.00
2018-09-25T09:42:26.650Z,15040.00
2018-09-25T09:43:26.641Z,7964.00
2018-09-25T09:44:26.625Z,7616.00
2018-09-25T09:45:26.617Z,7680.00
2018-09-25T09:46:26.606Z,9300.00
2018-09-25T09:47:26.595Z,17984.00
2018-09-25T09:48:26.581Z,8240.00
2018-09-25T09:49:26.571Z,16320.00
2018-09-25T09:50:26.615Z,16384.00
2018-09-25T09:51:26.545Z,17408.00
2018-09-25T09:52:26.537Z,7168.00
2018-09-25T09:53:26.525Z,7380.00
2018-09-25T09:54:26.516Z,17632.00
2018-09-25T09:55:26.504Z,17056.00
2018-09-25T09:56:26.547Z,16704.00
2018-09-25T09:57:26.480Z,17984.00
2018-09-25T09:58:26.471Z,18784.00
2018-09-25T09:59:26.463Z,19296.00
2018-09-25T10:00:26.446Z,19104.00
2018-09-25T10:01:26.437Z,4908.00
2018-09-25T10:02:26.433Z,4116.00
2018-09-25T10:03:26.413Z,19648.00
2018-09-25T10:04:26.405Z,20352.00
2018-09-25T10:05:26.395Z,21184.00
2018-09-25T10:06:26.381Z,23232.00
2018-09-25T10:07:26.375Z,36448.00
2018-09-25T10:08:26.359Z,65440.00
2018-09-25T10:09:26.351Z,78784.00
2018-09-25T10:10:26.343Z,50272.00
2018-09-25T10:11:26.330Z,67040.00
2018-09-25T10:12:26.353Z,7304.00
2018-09-25T10:13:26.310Z,7972.00
2018-09-25T10:14:26.300Z,7744.00
2018-09-25T10:15:26.297Z,8160.00
2018-09-25T10:16:26.287Z,8748.00
2018-09-25T10:17:26.274Z,14060.00
2018-09-25T10:18:26.262Z,67808.00
2018-09-25T10:19:26.249Z,59584.00
2018-09-25T10:20:26.243Z,62912.00
2018-09-25T10:21:26.230Z,68544.00
2018-09-25T10:22:26.222Z,74304.00
2018-09-25T10:23:26.212Z,75648.00
2018-09-25T10:24:26.203Z,77472.00
2018-09-25T10:25:26.195Z,79328.00
2018-09-25T10:26:26.183Z,83296.00
2018-09-25T10:27:26.482Z,83584.00
2018-09-25T10:28:26.163Z,81152.00
2018-09-25T10:29:26.157Z,76800.00
2018-09-25T10:30:26.149Z,71136.00
2018-09-25T10:31:26.141Z,72384.00
2018-09-25T10:32:26.129Z,72256.00
2018-09-25T10:33:26.121Z,72320.00
2018-09-25T10:34:26.114Z,72384.00
2018-09-25T10:35:26.104Z,76448.00
2018-09-25T10:36:26.101Z,79712.00
2018-09-25T10:37:26.096Z,82400.00
2018-09-25T10:38:26.082Z,86048.00
2018-09-25T10:39:26.077Z,86336.00
2018-09-25T10:40:26.070Z,87328.00
2018-09-25T10:41:26.059Z,17312.00
2018-09-25T10:42:26.048Z,14596.00
2018-09-25T10:43:26.046Z,10360.00
2018-09-25T10:44:26.033Z,75808.00
2018-09-25T10:45:26.029Z,76416.00
2018-09-25T10:46:26.021Z,63040.00
2018-09-25T10:47:26.015Z,78272.00
2018-09-25T10:48:26.008Z,13960.00
2018-09-25T10:49:25.998Z,13420.00
2018-09-25T10:50:25.989Z,76352.00
2018-09-25T10:51:25.987Z,76736.00
2018-09-25T10:52:25.980Z,73152.00
2018-09-25T10:53:25.977Z,71456.00
2018-09-25T10:54:25.968Z,69280.00
2018-09-25T10:55:25.995Z,73216.00
2018-09-25T10:56:25.952Z,71936.00
2018-09-25T10:57:25.946Z,71008.00
2018-09-25T10:58:25.949Z,78528.00
2018-09-25T10:59:25.931Z,90112.00
2018-09-25T11:00:25.935Z,97120.00
2018-09-25T11:01:25.921Z,95232.00
2018-09-25T11:02:25.915Z,78080.00
2018-09-25T11:03:25.911Z,74848.00
2018-09-25T11:04:25.919Z,80192.00
2018-09-25T11:05:25.897Z,85792.00
2018-09-25T11:06:25.891Z,90464.00
2018-09-25T11:07:25.887Z,87104.00
2018-09-25T11:08:25.888Z,81088.00
2018-09-25T11:09:25.875Z,79264.00
2018-09-25T11:10:25.875Z,78112.00
2018-09-25T11:11:25.866Z,78560.00
2018-09-25T11:12:25.863Z,82144.00
2018-09-25T11:13:25.852Z,83296.00
2018-09-25T11:14:25.847Z,84128.00
2018-09-25T11:15:25.845Z,85472.00
2018-09-25T11:16:25.839Z,83104.00
2018-09-25T11:17:25.833Z,88416.00
2018-09-25T11:18:25.833Z,85280.00
2018-09-25T11:19:25.825Z,82400.00
2018-09-25T11:20:25.821Z,81952.00
2018-09-25T11:21:25.821Z,83456.00
2018-09-25T11:22:25.811Z,82912.00
2018-09-25T11:23:25.805Z,86272.00
2018-09-25T11:24:25.799Z,85824.00
2018-09-25T11:25:25.839Z,84096.00
2018-09-25T11:26:25.789Z,80544.00
2018-09-25T11:27:25.784Z,78656.00
2018-09-25T11:28:25.790Z,75776.00
2018-09-25T11:29:25.781Z,80096.00
2018-09-25T11:30:25.775Z,83552.00
2018-09-25T11:31:25.767Z,84832.00
2018-09-25T11:32:25.771Z,83680.00
2018-09-25T11:33:25.764Z,80768.00
2018-09-25T11:34:25.755Z,84704.00
2018-09-25T11:35:25.787Z,85280.00
2018-09-25T11:36:25.750Z,80640.00
2018-09-25T11:37:25.744Z,81280.00
2018-09-25T11:38:25.737Z,83040.00
2018-09-25T11:39:25.741Z,11952.00
2018-09-25T11:40:25.731Z,69312.00
2018-09-25T11:41:25.881Z,40544.00
2018-09-25T11:42:25.723Z,7812.00
2018-09-25T11:43:25.715Z,6896.00
2018-09-25T11:44:25.715Z,13612.00
2018-09-25T11:45:25.713Z,11012.00
2018-09-25T11:46:25.711Z,17952.00
2018-09-25T11:47:25.712Z,13340.00
2018-09-25T11:48:25.703Z,10736.00
2018-09-25T11:49:25.708Z,64704.00
2018-09-25T11:50:25.689Z,18528.00
2018-09-25T11:51:25.680Z,76480.00
2018-09-25T11:52:25.681Z,81728.00
2018-09-25T11:53:25.678Z,46912.00
2018-09-25T11:54:25.671Z,60960.00
2018-09-25T11:55:25.670Z,10528.00
2018-09-25T11:56:25.726Z,84128.00
2018-09-25T11:57:25.658Z,83584.00
2018-09-25T11:58:25.683Z,20672.00
2018-09-25T11:59:25.641Z,79904.00
2018-09-25T12:00:25.641Z,76960.00
2018-09-25T12:01:25.634Z,74944.00
2018-09-25T12:02:25.626Z,17184.00
2018-09-25T12:03:25.624Z,8332.00
2018-09-25T12:04:25.648Z,10580.00
2018-09-25T12:05:25.618Z,7268.00
2018-09-25T12:06:25.617Z,6440.00
2018-09-25T12:07:25.607Z,72000.00
2018-09-25T12:08:25.604Z,71840.00
2018-09-25T12:09:25.595Z,18944.00
2018-09-25T12:10:25.590Z,75968.00
2018-09-25T12:11:25.584Z,76768.00
2018-09-25T12:12:25.581Z,29024.00
2018-09-25T12:13:25.576Z,82880.00
2018-09-25T12:14:25.567Z,12460.00
2018-09-25T12:15:25.566Z,9736.00
2018-09-25T12:16:25.570Z,8808.00
2018-09-25T12:17:25.606Z,73984.00
2018-09-25T12:18:25.554Z,72960.00
2018-09-25T12:19:25.549Z,33952.00
2018-09-25T12:20:25.543Z,72256.00
2018-09-25T12:21:25.534Z,73888.00
2018-09-25T12:22:25.530Z,41248.00
2018-09-25T12:23:25.615Z,29888.00
2018-09-25T12:24:25.594Z,56000.00
2018-09-25T12:25:25.517Z,57760.00
2018-09-25T12:26:25.507Z,29984.00
2018-09-25T12:27:25.507Z,22496.00
2018-09-25T12:28:25.502Z,18400.00
2018-09-25T12:29:25.494Z,9196.00
2018-09-25T12:30:25.488Z,8104.00